Time;durP1;ratioP1;P1;durP2;ratioP2;P2;SDS_P1;SDS_P2;PMS_P1;PMS_P2;Temp;Humidity;BMP_temperature;BMP_pressure;BME280_temperature;BME280_humidity;BME280_pressure;Samples;Min_cycle;Max_cycle;Signal;HPM_P1;HPM_P2
2023/03/14 00:00:35;;;;;;;6.20;4.07;;;19.70;62.00;;;;;;5054404;28;20024;-76
2023/03/14 00:03:01;;;;;;;10.32;5.38;;;19.70;61.90;;;;;;5053947;28;20082;-76
2023/03/14 00:05:27;;;;;;;14.18;5.50;;;19.70;62.00;;;;;;5054178;28;20412;-76
2023/03/14 00:07:53;;;;;;;14.75;5.43;;;19.80;63.20;;;;;;5019815;28;20025;-76
2023/03/14 00:10:19;;;;;;;16.30;4.97;;;19.80;64.00;;;;;;5054016;28;20033;-76
2023/03/14 00:12:45;;;;;;;19.73;5.63;;;19.80;63.30;;;;;;5053910;28;20108;-76
2023/03/14 00:15:12;;;;;;;18.50;5.60;;;19.80;63.50;;;;;;5053979;28;20025;-76
2023/03/14 00:17:38;;;;;;;19.50;5.45;;;19.80;64.10;;;;;;5053577;28;20125;-76
2023/03/14 00:20:11;;;;;;;15.60;5.47;;;19.90;63.40;;;;;;5054157;28;20113;-75
2023/03/14 00:22:41;;;;;;;11.35;4.50;;;19.90;63.90;;;;;;5036035;28;20036;-76
2023/03/14 00:25:08;;;;;;;14.32;5.15;;;19.90;65.50;;;;;;5053684;28;20036;-76
2023/03/14 00:27:34;;;;;;;11.50;4.82;;;19.90;64.60;;;;;;5040480;28;20030;-77
2023/03/14 00:30:00;;;;;;;18.75;5.35;;;19.90;64.30;;;;;;5015565;28;20028;-77
2023/03/14 00:32:26;;;;;;;11.70;5.00;;;19.90;65.40;;;;;;5032354;28;20022;-77
2023/03/14 00:34:52;;;;;;;12.63;5.10;;;19.90;65.50;;;;;;5026268;28;20400;-76
2023/03/14 00:37:18;;;;;;;14.65;5.32;;;19.90;64.80;;;;;;5032780;28;20447;-75
2023/03/14 00:39:44;;;;;;;16.13;5.05;;;19.90;64.60;;;;;;5040139;28;20063;-75
2023/03/14 00:42:10;;;;;;;14.13;4.95;;;19.90;66.10;;;;;;5033079;28;20030;-75
2023/03/14 00:44:36;;;;;;;13.23;5.30;;;19.80;65.50;;;;;;5015364;28;20037;-75
2023/03/14 00:47:06;;;;;;;10.98;4.68;;;19.80;64.80;;;;;;5015022;28;20029;-75
2023/03/14 00:49:31;;;;;;;11.35;5.18;;;19.80;66.10;;;;;;5031501;28;20026;-75
2023/03/14 00:51:57;;;;;;;12.23;4.72;;;19.80;65.90;;;;;;5014796;28;20486;-76
2023/03/14 00:54:23;;;;;;;9.50;4.90;;;19.80;66.40;;;;;;5015137;28;20043;-75
2023/03/14 00:56:49;;;;;;;10.40;5.28;;;19.80;66.60;;;;;;5032449;28;20489;-76
2023/03/14 00:59:16;;;;;;;8.73;4.90;;;19.80;67.10;;;;;;5028541;28;20083;-75
2023/03/14 01:01:42;;;;;;;11.70;5.18;;;19.80;66.90;;;;;;5027629;28;20029;-76
2023/03/14 01:04:08;;;;;;;11.07;4.68;;;19.80;67.00;;;;;;5032085;28;20481;-75
2023/03/14 01:06:33;;;;;;;8.73;4.40;;;19.80;65.70;;;;;;5031709;28;20026;-75
2023/03/14 01:09:00;;;;;;;11.43;5.13;;;19.90;66.60;;;;;;4998413;28;20030;-75
2023/03/14 01:11:29;;;;;;;8.80;4.25;;;19.90;65.60;;;;;;5048091;28;20060;-76
2023/03/14 01:13:57;;;;;;;11.63;5.35;;;19.90;67.40;;;;;;5018088;28;20030;-74
2023/03/14 01:16:25;;;;;;;22.00;5.93;;;19.90;67.20;;;;;;5025758;28;20036;-71
2023/03/14 01:18:52;;;;;;;27.92;5.78;;;19.90;66.20;;;;;;5049413;28;20489;-71
2023/03/14 01:21:27;;;;;;;10.60;4.55;;;19.90;66.20;;;;;;5028267;28;20083;-71
2023/03/14 01:23:55;;;;;;;9.82;4.78;;;19.90;68.60;;;;;;5032443;28;20377;-71
2023/03/14 01:26:23;;;;;;;12.15;4.43;;;19.90;68.00;;;;;;5030388;28;20056;-71
2023/03/14 01:28:50;;;;;;;16.63;5.50;;;19.90;68.20;;;;;;5026829;28;20025;-71
2023/03/14 01:31:18;;;;;;;16.05;5.53;;;19.90;68.40;;;;;;5014385;28;20499;-71
2023/03/14 01:33:45;;;;;;;17.77;5.43;;;19.90;67.00;;;;;;5032010;28;20033;-72
2023/03/14 01:36:11;;;;;;;18.85;5.13;;;19.90;67.00;;;;;;5014133;28;20029;-72
2023/03/14 01:38:39;;;;;;;21.40;5.78;;;19.90;68.10;;;;;;5014822;28;20041;-72
2023/03/14 01:41:11;;;;;;;16.17;5.80;;;19.90;66.90;;;;;;4999571;28;20033;-74
2023/03/14 01:43:37;;;;;;;24.30;6.10;;;19.90;66.40;;;;;;4999490;28;20294;-72
2023/03/14 01:46:19;;;;;;;21.17;6.22;;;19.90;66.40;;;;;;5013977;28;20528;-72
2023/03/14 01:49:08;;;;;;;21.63;5.95;;;20.00;66.60;;;;;;5012466;28;20021;-72
2023/03/14 01:51:41;;;;;;;14.05;5.18;;;19.90;67.00;;;;;;5013370;28;20389;-72
2023/03/14 01:54:16;;;;;;;21.13;6.20;;;19.90;66.70;;;;;;5014151;28;20033;-72
2023/03/14 01:56:46;;;;;;;17.10;4.68;;;19.90;66.80;;;;;;4997253;28;20117;-72
2023/03/14 01:59:12;;;;;;;16.38;5.50;;;19.90;66.90;;;;;;5014069;28;20388;-72
2023/03/14 02:01:42;;;;;;;14.23;4.50;;;19.90;66.80;;;;;;5013791;28;20025;-72
2023/03/14 02:04:09;;;;;;;22.25;5.72;;;19.90;66.90;;;;;;5013963;28;20037;-72
2023/03/14 02:07:12;;;;;;;16.05;5.22;;;19.90;66.90;;;;;;5013765;28;20025;-72
2023/03/14 02:09:44;;;;;;;15.48;5.55;;;19.90;67.20;;;;;;4994687;28;20460;-72
2023/03/14 02:12:17;;;;;;;10.85;4.60;;;19.90;66.90;;;;;;5014175;28;20032;-72
2023/03/14 02:14:48;;;;;;;12.10;4.72;;;19.90;66.90;;;;;;4999283;28;20489;-72
2023/03/14 02:17:40;;;;;;;11.05;4.55;;;19.90;67.30;;;;;;5030734;28;20457;-72
2023/03/14 02:20:35;;;;;;;14.02;4.82;;;19.90;67.30;;;;;;5014157;28;20037;-73
2023/03/14 02:23:01;;;;;;;14.70;5.07;;;19.90;66.80;;;;;;5014216;28;20033;-72
2023/03/14 02:25:37;;;;;;;12.82;5.05;;;19.90;67.50;;;;;;5031283;28;20124;-72
2023/03/14 02:28:03;;;;;;;11.32;4.97;;;19.90;67.60;;;;;;5031634;28;20021;-73
2023/03/14 02:30:32;;;;;;;13.27;5.10;;;19.90;67.50;;;;;;5014085;28;20109;-73
2023/03/14 02:33:06;;;;;;;9.07;4.65;;;19.80;67.80;;;;;;5013868;28;20697;-73
2023/03/14 02:35:58;;;;;;;12.63;4.40;;;19.80;67.70;;;;;;4997330;28;20037;-73
2023/03/14 02:38:30;;;;;;;11.68;4.82;;;19.80;66.90;;;;;;5013944;28;20068;-73
2023/03/14 02:40:56;;;;;;;15.27;4.65;;;19.80;67.70;;;;;;5013805;28;20040;-72
2023/03/14 02:43:22;;;;;;;10.88;4.80;;;19.80;67.70;;;;;;5013691;28;20036;-73
2023/03/14 02:45:55;;;;;;;12.52;4.53;;;19.80;67.30;;;;;;5013502;28;20124;-73
2023/03/14 02:48:31;;;;;;;12.95;4.22;;;19.80;67.60;;;;;;5013971;28;20033;-73
2023/03/14 02:51:00;;;;;;;11.02;4.30;;;19.90;67.90;;;;;;5013862;28;20032;-73
2023/03/14 02:53:34;;;;;;;11.27;4.40;;;19.90;67.40;;;;;;4997769;28;20034;-72
2023/03/14 02:56:05;;;;;;;10.73;4.57;;;19.90;67.60;;;;;;4996981;28;20512;-73
2023/03/14 02:58:33;;;;;;;12.85;4.47;;;19.80;67.10;;;;;;5013640;28;20033;-73
2023/03/14 03:01:19;;;;;;;12.90;4.80;;;19.90;67.40;;;;;;5030539;28;20132;-72
2023/03/14 03:03:45;;;;;;;12.38;4.63;;;19.90;67.30;;;;;;5013612;28;20545;-73
2023/03/14 03:06:11;;;;;;;13.32;4.60;;;19.80;67.80;;;;;;5013314;28;20025;-72
2023/03/14 03:08:37;;;;;;;7.13;3.80;;;19.80;67.30;;;;;;5013547;28;20033;-73
2023/03/14 03:11:03;;;;;;;10.57;4.43;;;19.80;67.50;;;;;;5031184;28;20397;-73
2023/03/14 03:13:32;;;;;;;14.00;4.30;;;19.80;67.50;;;;;;5013563;28;20029;-73
2023/03/14 03:16:00;;;;;;;11.35;4.35;;;19.80;67.50;;;;;;5013568;28;20440;-73
2023/03/14 03:18:25;;;;;;;10.32;4.13;;;19.80;68.90;;;;;;5013462;28;20026;-73
2023/03/14 03:20:51;;;;;;;12.27;4.38;;;19.80;67.30;;;;;;5013443;28;20040;-72
2023/03/14 03:23:17;;;;;;;9.55;4.07;;;19.80;68.00;;;;;;5013211;28;20125;-72
2023/03/14 03:25:49;;;;;;;10.32;4.57;;;19.80;67.20;;;;;;5030829;28;20049;-73
2023/03/14 03:28:15;;;;;;;12.43;4.55;;;19.80;67.50;;;;;;5000652;28;20032;-73
2023/03/14 03:30:42;;;;;;;11.10;4.43;;;19.80;67.50;;;;;;5017182;28;20033;-73
2023/03/14 03:33:08;;;;;;;14.85;4.50;;;19.80;67.20;;;;;;5017107;28;20469;-72
2023/03/14 03:35:34;;;;;;;10.23;3.90;;;19.80;67.50;;;;;;5017105;28;20033;-72
2023/03/14 03:38:01;;;;;;;9.27;4.00;;;19.80;67.20;;;;;;5000612;28;20453;-72
2023/03/14 03:40:27;;;;;;;10.82;4.20;;;19.80;67.50;;;;;;5017369;28;20468;-73
2023/03/14 03:42:54;;;;;;;11.43;3.97;;;19.80;67.50;;;;;;5016809;28;20473;-72
2023/03/14 03:45:20;;;;;;;9.48;4.22;;;19.80;67.80;;;;;;5016865;28;20029;-72
2023/03/14 03:47:51;;;;;;;9.45;4.22;;;19.80;67.40;;;;;;5016627;28;20022;-72
2023/03/14 03:50:17;;;;;;;8.18;3.88;;;19.80;68.00;;;;;;5016973;28;20386;-72
2023/03/14 03:52:43;;;;;;;9.23;4.32;;;19.80;67.40;;;;;;5000347;28;20045;-72
2023/03/14 03:55:09;;;;;;;8.98;4.13;;;19.80;67.40;;;;;;5016874;28;20033;-72
2023/03/14 03:57:35;;;;;;;6.75;3.72;;;19.80;68.00;;;;;;5016276;28;20048;-72
2023/03/14 04:00:01;;;;;;;10.13;4.05;;;19.80;67.60;;;;;;5034421;28;20034;-72
2023/03/14 04:02:27;;;;;;;11.05;4.18;;;19.80;67.60;;;;;;5034214;28;20033;-72
2023/03/14 04:04:53;;;;;;;8.35;4.15;;;19.80;67.40;;;;;;5016453;28;20033;-72
2023/03/14 04:07:18;;;;;;;9.10;3.88;;;19.80;67.50;;;;;;5016268;28;20423;-72
2023/03/14 04:09:44;;;;;;;6.72;3.70;;;19.80;67.80;;;;;;4999958;28;20075;-71
2023/03/14 04:12:29;;;;;;;8.80;3.92;;;19.80;67.40;;;;;;5016335;28;20426;-70
2023/03/14 04:15:07;;;;;;;9.85;4.13;;;19.80;67.40;;;;;;5045381;28;20116;-72
2023/03/14 04:17:33;;;;;;;7.55;3.72;;;19.80;67.70;;;;;;5035814;28;20068;-71
2023/03/14 04:19:59;;;;;;;7.40;4.00;;;19.80;67.60;;;;;;5036038;28;20067;-71
2023/03/14 04:22:33;;;;;;;6.75;3.72;;;19.80;67.80;;;;;;5036003;28;20128;-72
2023/03/14 04:24:59;;;;;;;8.02;4.07;;;19.80;67.60;;;;;;5035911;28;20067;-72
2023/03/14 04:27:25;;;;;;;7.88;3.88;;;19.80;67.60;;;;;;5019316;28;20124;-72
2023/03/14 04:29:52;;;;;;;8.63;4.05;;;19.80;67.80;;;;;;5035963;28;20028;-71
2023/03/14 04:32:25;;;;;;;7.95;3.33;;;19.80;67.70;;;;;;5052383;28;20025;-72
2023/03/14 04:34:51;;;;;;;8.07;3.85;;;19.80;67.90;;;;;;5035872;28;20061;-72
2023/03/14 04:37:17;;;;;;;8.52;3.95;;;19.70;67.50;;;;;;5018816;28;20069;-72
2023/03/14 04:39:44;;;;;;;7.30;3.53;;;19.70;67.50;;;;;;5035730;28;20033;-72
2023/03/14 04:42:25;;;;;;;6.22;3.25;;;19.70;67.80;;;;;;5035587;28;20040;-72
2023/03/14 04:44:51;;;;;;;10.63;3.78;;;19.70;68.00;;;;;;5053798;28;20379;-72
2023/03/14 04:47:18;;;;;;;5.15;3.50;;;19.70;67.90;;;;;;5035529;28;20037;-72
2023/03/14 04:49:46;;;;;;;8.73;3.90;;;19.80;68.00;;;;;;5035506;28;20028;-72
2023/03/14 04:52:14;;;;;;;7.38;3.78;;;19.70;67.80;;;;;;5035529;28;20090;-72
2023/03/14 04:54:41;;;;;;;8.00;3.80;;;19.70;67.90;;;;;;5019141;28;20064;-72
2023/03/14 04:57:07;;;;;;;6.38;3.30;;;19.70;68.00;;;;;;5052904;28;20053;-72
2023/03/14 04:59:35;;;;;;;6.82;3.67;;;19.70;68.10;;;;;;5035582;28;20440;-71
2023/03/14 05:02:13;;;;;;;7.20;3.60;;;19.80;68.20;;;;;;5018953;28;20430;-72
2023/03/14 05:04:55;;;;;;;8.18;3.60;;;19.80;68.00;;;;;;5035145;28;20052;-72
2023/03/14 05:07:39;;;;;;;7.20;3.50;;;19.80;68.20;;;;;;5037554;28;20061;-71
2023/03/14 05:10:24;;;;;;;8.18;3.50;;;19.80;68.00;;;;;;5031966;28;20029;-72
2023/03/14 05:13:09;;;;;;;9.55;3.67;;;19.80;68.00;;;;;;5014222;28;20034;-71
2023/03/14 05:15:55;;;;;;;7.60;3.60;;;19.80;68.50;;;;;;5014693;28;20477;-72
2023/03/14 05:18:40;;;;;;;8.93;3.70;;;19.80;68.20;;;;;;5014714;28;20025;-72
2023/03/14 05:21:12;;;;;;;6.32;3.70;;;19.80;68.20;;;;;;5031837;28;20025;-72
2023/03/14 05:23:56;;;;;;;6.65;3.38;;;19.80;68.30;;;;;;5015151;28;20036;-72
2023/03/14 05:26:41;;;;;;;7.70;3.63;;;19.80;68.30;;;;;;5032472;28;20456;-72
2023/03/14 05:29:33;;;;;;;7.50;3.40;;;19.80;68.40;;;;;;5014057;28;20034;-71
2023/03/14 05:32:25;;;;;;;5.70;3.03;;;19.80;68.40;;;;;;5014993;28;20639;-71
2023/03/14 05:34:59;;;;;;;7.03;3.45;;;19.80;68.40;;;;;;5014883;28;20025;-71
2023/03/14 05:37:43;;;;;;;4.72;3.05;;;19.80;68.50;;;;;;5030971;28;20029;-71
2023/03/14 05:40:34;;;;;;;6.68;3.28;;;19.80;68.50;;;;;;5014891;28;20056;-72
2023/03/14 05:43:33;;;;;;;6.90;3.30;;;19.80;68.50;;;;;;5014137;28;20507;-73
2023/03/14 05:46:21;;;;;;;5.85;3.35;;;19.80;68.30;;;;;;5032374;28;20436;-71
2023/03/14 05:48:52;;;;;;;7.43;3.60;;;19.80;68.70;;;;;;5014206;28;20470;-71
2023/03/14 05:51:32;;;;;;;;;;;19.80;68.50;;;;;;5015026;28;20057;-72
2023/03/14 05:54:21;;;;;;;7.00;3.55;;;19.80;68.40;;;;;;5002737;28;20383;-72
2023/03/14 05:56:56;;;;;;;5.40;3.55;;;19.80;68.50;;;;;;5014261;28;20029;-72
2023/03/14 05:59:27;;;;;;;9.25;3.38;;;19.80;68.60;;;;;;5014590;28;20038;-71
2023/03/14 06:02:01;;;;;;;8.18;3.50;;;19.80;68.60;;;;;;5014332;28;20128;-72
2023/03/14 06:04:34;;;;;;;5.10;3.30;;;19.80;68.70;;;;;;5030672;28;20101;-72
2023/03/14 06:07:00;;;;;;;7.72;3.53;;;19.80;68.60;;;;;;5014013;28;20108;-72
2023/03/14 06:09:26;;;;;;;7.05;3.35;;;19.80;68.50;;;;;;5014129;28;20036;-71
2023/03/14 06:11:55;;;;;;;8.98;3.40;;;19.80;68.60;;;;;;5014356;28;20083;-72
2023/03/14 06:14:21;;;;;;;7.53;3.78;;;19.80;69.30;;;;;;5014388;28;20033;-71
2023/03/14 06:16:50;;;;;;;9.88;4.53;;;19.80;68.70;;;;;;5013864;28;20033;-73
2023/03/14 06:19:17;;;;;;;6.25;3.75;;;19.90;69.10;;;;;;5014082;28;20397;-72
2023/03/14 06:21:43;;;;;;;9.10;3.55;;;19.90;68.80;;;;;;5014112;28;20117;-71
2023/03/14 06:24:08;;;;;;;7.13;3.67;;;19.90;68.60;;;;;;5031425;28;20038;-72
2023/03/14 06:26:40;;;;;;;5.38;3.20;;;19.90;68.70;;;;;;5031389;28;20067;-72
2023/03/14 06:29:06;;;;;;;5.20;3.38;;;19.90;68.40;;;;;;5013843;28;20025;-72
2023/03/14 06:31:33;;;;;;;8.15;4.00;;;19.90;68.80;;;;;;5014039;28;20026;-72
2023/03/14 06:34:02;;;;;;;6.78;3.50;;;19.90;68.50;;;;;;5014055;28;20025;-72
2023/03/14 06:36:30;;;;;;;6.03;3.42;;;19.90;68.40;;;;;;5013636;28;20061;-72
2023/03/14 06:38:57;;;;;;;8.10;3.92;;;19.90;68.90;;;;;;5013578;28;20474;-72
2023/03/14 06:41:26;;;;;;;7.78;3.65;;;19.90;68.80;;;;;;5013829;28;20032;-71
2023/03/14 06:43:52;;;;;;;6.90;3.40;;;19.90;68.80;;;;;;5031328;28;20026;-71
2023/03/14 06:46:19;;;;;;;8.82;3.95;;;19.90;68.70;;;;;;4997199;28;20048;-71
2023/03/14 06:48:45;;;;;;;8.40;4.00;;;20.00;69.00;;;;;;5013647;28;20029;-72
2023/03/14 06:51:12;;;;;;;6.47;3.55;;;20.00;69.00;;;;;;5013989;28;20029;-71
2023/03/14 06:53:38;;;;;;;7.43;3.95;;;20.00;68.90;;;;;;5030152;28;20424;-72
2023/03/14 06:56:05;;;;;;;6.18;3.38;;;20.00;69.30;;;;;;5013400;28;20029;-71
2023/03/14 06:58:32;;;;;;;7.60;4.00;;;20.00;68.90;;;;;;5013575;28;20037;-72
2023/03/14 07:01:00;;;;;;;7.00;3.63;;;20.00;68.90;;;;;;5015048;28;20076;-72
2023/03/14 07:03:31;;;;;;;7.90;4.22;;;20.00;68.90;;;;;;5017657;28;20027;-72
2023/03/14 07:05:59;;;;;;;6.75;3.67;;;20.00;69.10;;;;;;5017264;28;20026;-71
2023/03/14 07:08:25;;;;;;;6.72;3.45;;;20.00;69.00;;;;;;5035259;28;20029;-72
2023/03/14 07:10:51;;;;;;;6.97;3.83;;;20.00;68.80;;;;;;5017654;28;20029;-71
2023/03/14 07:13:17;;;;;;;7.43;3.95;;;20.10;68.90;;;;;;5017803;28;20030;-72
2023/03/14 07:15:51;;;;;;;7.07;3.70;;;20.10;69.50;;;;;;5016898;28;20033;-72
2023/03/14 07:18:17;;;;;;;6.78;3.63;;;20.00;69.00;;;;;;5017361;28;20021;-72
2023/03/14 07:20:45;;;;;;;6.57;3.40;;;20.10;69.10;;;;;;5035135;28;20087;-72
2023/03/14 07:23:12;;;;;;;6.22;3.75;;;20.10;68.80;;;;;;5017244;28;20033;-71
2023/03/14 07:25:44;;;;;;;6.22;3.42;;;20.10;69.00;;;;;;5016922;28;20033;-72
2023/03/14 07:28:11;;;;;;;6.47;3.80;;;20.10;69.00;;;;;;5017341;28;20096;-72
2023/03/14 07:30:40;;;;;;;7.53;3.60;;;20.10;68.80;;;;;;5017221;28;20025;-72
2023/03/14 07:33:12;;;;;;;7.78;3.55;;;20.10;68.80;;;;;;5017301;28;20049;-73
2023/03/14 07:35:38;;;;;;;8.18;3.70;;;20.10;68.90;;;;;;5016827;28;20473;-71
2023/03/14 07:38:04;;;;;;;6.03;3.78;;;20.10;68.60;;;;;;5033474;28;20037;-72
2023/03/14 07:40:35;;;;;;;10.07;4.53;;;20.10;68.80;;;;;;5017023;28;20091;-72
2023/03/14 07:43:02;;;;;;;10.23;4.22;;;20.10;68.80;;;;;;5017175;28;20096;-72
2023/03/14 07:45:40;;;;;;;7.57;4.30;;;20.10;68.70;;;;;;5016223;28;20030;-72
2023/03/14 07:48:05;;;;;;;6.28;3.92;;;20.10;68.80;;;;;;5034451;28;20021;-72
2023/03/14 07:50:31;;;;;;;6.95;3.90;;;20.10;68.90;;;;;;5034433;28;20383;-72
2023/03/14 07:52:57;;;;;;;8.55;4.20;;;20.10;68.80;;;;;;5034318;28;20079;-72
2023/03/14 07:55:23;;;;;;;8.48;4.72;;;20.10;68.90;;;;;;5033834;28;20036;-72
2023/03/14 07:57:48;;;;;;;8.80;4.25;;;20.10;68.90;;;;;;5034261;28;20029;-72
2023/03/14 08:00:15;;;;;;;8.02;4.15;;;20.10;68.80;;;;;;5034259;28;20033;-72
2023/03/14 08:02:41;;;;;;;8.65;4.43;;;20.10;69.10;;;;;;5034200;28;20404;-72
2023/03/14 08:05:07;;;;;;;10.02;4.45;;;20.10;68.90;;;;;;5034013;28;20038;-72
2023/03/14 08:07:32;;;;;;;7.32;4.00;;;20.10;68.80;;;;;;5033898;28;20104;-72
2023/03/14 08:09:58;;;;;;;8.50;4.22;;;20.10;69.10;;;;;;5034037;28;20104;-71
2023/03/14 08:12:24;;;;;;;9.88;4.57;;;20.10;69.20;;;;;;5033418;28;20017;-72
2023/03/14 08:14:50;;;;;;;7.60;4.15;;;20.10;68.80;;;;;;5034096;28;20053;-72
2023/03/14 08:17:15;;;;;;;9.13;4.72;;;20.10;69.10;;;;;;5014318;28;20080;-72
2023/03/14 08:19:42;;;;;;;8.65;4.63;;;20.10;68.60;;;;;;5006195;28;20116;-72
2023/03/14 08:22:07;;;;;;;9.95;4.82;;;20.00;68.60;;;;;;5019542;28;20018;-76
2023/03/14 08:24:33;;;;;;;9.63;4.80;;;20.10;69.70;;;;;;5014872;28;20029;-75
2023/03/14 08:26:59;;;;;;;13.75;5.07;;;20.10;69.60;;;;;;5031057;28;20045;-81
2023/03/14 08:29:25;;;;;;;9.20;4.32;;;20.10;69.30;;;;;;5035006;28;20025;-80
2023/03/14 08:31:51;;;;;;;10.15;4.13;;;20.10;68.10;;;;;;5019451;28;20121;-85
2023/03/14 08:34:17;;;;;;;12.95;4.60;;;20.20;64.40;;;;;;5015406;28;20040;-83
2023/03/14 08:36:43;;;;;;;10.60;3.63;;;20.10;65.30;;;;;;5032997;28;20519;-82
2023/03/14 08:39:09;;;;;;;9.25;4.13;;;20.10;62.50;;;;;;5004123;28;20037;-81
2023/03/14 08:41:40;;;;;;;14.07;3.80;;;20.00;61.20;;;;;;5031474;28;20464;-81
2023/03/14 08:44:11;;;;;;;12.75;3.50;;;19.90;62.00;;;;;;5013925;28;20029;-82
2023/03/14 08:46:37;;;;;;;7.30;2.80;;;19.80;61.60;;;;;;5030756;28;20021;-81
2023/03/14 08:49:03;;;;;;;11.20;2.90;;;19.70;60.20;;;;;;5013584;28;20095;-66
2023/03/14 08:51:29;;;;;;;10.07;2.90;;;19.70;60.20;;;;;;5030854;28;20038;-66
2023/03/14 08:53:55;;;;;;;7.38;3.13;;;19.70;59.50;;;;;;5031446;28;20029;-76
2023/03/14 08:56:21;;;;;;;13.57;3.10;;;19.70;59.10;;;;;;5030459;28;20033;-76
2023/03/14 08:58:47;;;;;;;13.82;3.38;;;19.70;58.90;;;;;;5031054;28;20037;-75
2023/03/14 09:01:13;;;;;;;12.68;3.17;;;19.80;59.80;;;;;;5030959;28;20026;-76
2023/03/14 09:03:38;;;;;;;13.95;4.03;;;19.90;61.50;;;;;;5013076;28;20029;-76
2023/03/14 09:06:06;;;;;;;9.40;3.55;;;20.10;64.40;;;;;;5030649;28;20060;-76
2023/03/14 09:08:33;;;;;;;8.10;3.05;;;20.20;65.80;;;;;;5031305;28;20484;-76
2023/03/14 09:10:59;;;;;;;10.85;3.72;;;20.30;62.00;;;;;;5030974;28;20056;-77
2023/03/14 09:13:24;;;;;;;11.05;3.88;;;20.40;65.60;;;;;;5030717;28;20068;-77
2023/03/14 09:15:54;;;;;;;12.43;3.97;;;20.40;66.10;;;;;;5030449;28;20202;-77
2023/03/14 09:18:20;;;;;;;23.23;4.35;;;20.40;66.40;;;;;;5030781;28;20071;-77
2023/03/14 09:20:46;;;;;;;13.77;3.92;;;20.50;66.90;;;;;;5012929;28;20029;-77
2023/03/14 09:23:12;;;;;;;13.77;4.20;;;20.50;67.60;;;;;;5030525;28;20029;-77
2023/03/14 09:25:38;;;;;;;15.13;3.92;;;20.50;67.40;;;;;;5011679;28;20036;-76
2023/03/14 09:28:04;;;;;;;8.07;3.10;;;20.50;65.80;;;;;;5027957;28;20033;-76
2023/03/14 09:30:30;;;;;;;11.02;3.58;;;20.60;63.80;;;;;;5050637;28;20029;-76
2023/03/14 09:33:01;;;;;;;15.70;3.50;;;20.60;63.40;;;;;;5040567;28;20018;-76
2023/03/14 09:35:30;;;;;;;13.75;4.13;;;20.70;64.50;;;;;;5016215;28;20053;-77
2023/03/14 09:37:58;;;;;;;15.93;3.85;;;20.60;65.10;;;;;;5050186;28;20061;-77
2023/03/14 09:40:31;;;;;;;13.45;3.58;;;20.60;64.20;;;;;;5049748;28;20029;-77
2023/03/14 09:42:58;;;;;;;13.27;3.60;;;20.60;63.60;;;;;;5050056;28;20029;-77
2023/03/14 09:45:38;;;;;;;11.65;3.50;;;20.60;63.50;;;;;;5048214;28;20036;-77
2023/03/14 09:48:05;;;;;;;8.73;3.15;;;20.60;63.60;;;;;;5015659;28;20521;-77
2023/03/14 09:50:52;;;;;;;15.60;3.67;;;20.60;63.80;;;;;;5049855;28;20029;-77
2023/03/14 09:53:24;;;;;;;10.95;2.95;;;20.50;64.00;;;;;;5049493;28;20033;-77
2023/03/14 09:55:52;;;;;;;10.98;3.67;;;20.50;64.20;;;;;;5031638;28;20119;-77
2023/03/14 09:58:23;;;;;;;11.38;3.17;;;20.50;64.40;;;;;;5049528;28;20029;-77
2023/03/14 10:00:52;;;;;;;7.05;2.95;;;20.50;64.40;;;;;;4992593;28;20113;-76
2023/03/14 10:03:21;;;;;;;11.40;3.40;;;20.50;64.60;;;;;;5009821;28;20076;-77
2023/03/14 10:05:47;;;;;;;11.95;3.40;;;20.50;64.80;;;;;;5009834;28;20482;-76
2023/03/14 10:08:13;;;;;;;10.30;3.50;;;20.50;65.00;;;;;;5009608;28;20056;-76
2023/03/14 10:10:40;;;;;;;12.55;3.25;;;20.50;65.40;;;;;;5011236;28;20612;-78
2023/03/14 10:13:17;;;;;;;11.75;3.45;;;20.50;66.10;;;;;;5029506;28;20037;-76
2023/03/14 10:15:48;;;;;;;11.73;3.78;;;20.60;66.20;;;;;;5029515;28;20029;-77
2023/03/14 10:18:14;;;;;;;13.45;3.60;;;20.60;65.90;;;;;;5040248;28;20033;-77
2023/03/14 10:20:46;;;;;;;19.42;4.43;;;20.60;66.10;;;;;;5024358;28;20264;-77
2023/03/14 10:23:15;;;;;;;17.85;4.25;;;20.50;66.10;;;;;;5028743;28;20537;-77
2023/03/14 10:25:46;;;;;;;24.50;3.97;;;20.50;66.20;;;;;;5049379;28;20118;-76
2023/03/14 10:28:25;;;;;;;15.52;3.88;;;20.60;66.20;;;;;;5049374;28;20025;-77
2023/03/14 10:30:51;;;;;;;13.73;3.72;;;20.60;66.70;;;;;;5048916;28;20025;-77
2023/03/14 10:33:23;;;;;;;16.67;4.20;;;20.60;66.20;;;;;;5049207;28;20130;-78
2023/03/14 10:36:00;;;;;;;20.02;4.28;;;20.60;65.90;;;;;;5048923;28;20040;-79
2023/03/14 10:38:29;;;;;;;17.02;4.05;;;20.60;66.70;;;;;;5048956;28;20052;-80
2023/03/14 10:40:57;;;;;;;14.23;4.22;;;20.60;67.00;;;;;;5047618;28;20032;-79
2023/03/14 10:43:35;;;;;;;17.13;4.00;;;20.60;66.40;;;;;;5012233;28;20044;-78
2023/03/14 10:46:09;;;;;;;21.00;4.75;;;20.60;66.30;;;;;;5029693;28;20136;-79
2023/03/14 10:48:55;;;;;;;17.65;4.10;;;20.60;66.40;;;;;;4999366;28;20022;-81
2023/03/14 10:51:30;;;;;;;19.20;3.80;;;20.60;66.40;;;;;;5029585;28;20420;-83
2023/03/14 10:54:12;;;;;;;14.35;3.83;;;20.60;66.30;;;;;;5028118;28;20105;-77
2023/03/14 10:56:38;;;;;;;16.27;4.38;;;20.60;66.10;;;;;;5029235;28;20061;-81
2023/03/14 10:59:12;;;;;;;16.40;4.10;;;20.60;66.10;;;;;;5028150;28;20090;-74
2023/03/14 11:02:07;;;;;;;15.82;3.55;;;20.60;64.40;;;;;;5029337;28;20024;-75
2023/03/14 11:05:08;;;;;;;14.07;3.63;;;20.60;64.70;;;;;;5028802;28;20069;-75
2023/03/14 11:07:41;;;;;;;16.50;3.72;;;20.60;64.10;;;;;;5003090;28;20033;-75
2023/03/14 11:10:31;;;;;;;13.77;3.28;;;20.50;63.90;;;;;;5027670;28;20048;-74
2023/03/14 11:13:25;;;;;;;8.93;3.75;;;20.50;64.00;;;;;;4975248;28;20053;-75
2023/03/14 11:15:59;;;;;;;10.10;3.30;;;20.60;64.30;;;;;;5014579;28;20049;-75
2023/03/14 11:18:59;;;;;;;13.30;3.92;;;20.50;64.40;;;;;;5028788;28;20038;-74
2023/03/14 11:21:37;;;;;;;12.00;3.47;;;20.50;64.50;;;;;;5008164;28;20036;-74
2023/03/14 11:24:31;;;;;;;15.25;3.55;;;20.60;64.60;;;;;;5020490;28;20561;-74
2023/03/14 11:27:14;;;;;;;10.73;3.80;;;20.60;64.70;;;;;;5028526;28;20500;-74
2023/03/14 11:29:46;;;;;;;13.77;3.67;;;20.60;64.90;;;;;;5027408;28;20116;-75
2023/03/14 11:32:54;;;;;;;13.02;3.60;;;20.60;64.90;;;;;;5028552;28;20061;-74
2023/03/14 11:35:28;;;;;;;12.38;3.88;;;20.60;64.90;;;;;;5010848;28;20454;-75
2023/03/14 11:38:21;;;;;;;11.65;3.60;;;20.60;65.00;;;;;;5028473;28;20049;-75
2023/03/14 11:40:49;;;;;;;7.93;3.15;;;20.60;65.00;;;;;;5025625;28;20048;-75
2023/03/14 11:43:20;;;;;;;11.35;3.40;;;20.60;65.10;;;;;;5028520;28;20036;-75
2023/03/14 11:45:48;;;;;;;8.82;3.67;;;20.60;65.00;;;;;;5028627;28;20363;-74
2023/03/14 11:48:54;;;;;;;10.70;3.60;;;20.60;65.00;;;;;;5012434;28;20485;-74
2023/03/14 11:51:31;;;;;;;12.60;3.90;;;20.60;65.20;;;;;;5031868;28;20028;-74
2023/03/14 11:54:14;;;;;;;12.95;3.85;;;20.60;65.00;;;;;;5032122;28;20484;-74
2023/03/14 11:56:53;;;;;;;11.90;3.13;;;20.60;65.00;;;;;;5013580;28;20117;-74
2023/03/14 11:59:58;;;;;;;9.35;3.55;;;20.60;65.00;;;;;;5014829;28;20029;-74
2023/03/14 12:02:29;;;;;;;13.27;3.80;;;20.60;65.10;;;;;;4992827;28;20091;-75
2023/03/14 12:05:33;;;;;;;10.23;3.58;;;20.60;65.10;;;;;;5030287;28;20052;-74
2023/03/14 12:08:07;;;;;;;13.60;3.60;;;20.60;65.10;;;;;;5029580;28;20026;-75
2023/03/14 12:10:53;;;;;;;11.80;3.75;;;20.60;64.90;;;;;;5029660;28;20803;-74
2023/03/14 12:13:19;;;;;;;9.77;3.78;;;20.60;65.00;;;;;;5031500;28;20030;-75
2023/03/14 12:16:00;;;;;;;9.80;3.40;;;20.60;65.00;;;;;;5031387;28;20041;-74
2023/03/14 12:18:29;;;;;;;9.68;3.70;;;20.60;65.10;;;;;;5024365;28;20832;-74
2023/03/14 12:20:59;;;;;;;9.18;3.45;;;20.60;65.10;;;;;;5013904;28;20079;-75
2023/03/14 12:23:27;;;;;;;13.40;4.43;;;20.60;65.00;;;;;;5031838;28;20112;-74
2023/03/14 12:26:13;;;;;;;10.90;4.20;;;20.60;65.10;;;;;;4996771;28;20025;-75
2023/03/14 12:28:43;;;;;;;12.15;4.13;;;20.60;65.10;;;;;;5025121;28;20029;-74
2023/03/14 12:31:28;;;;;;;11.70;3.38;;;20.60;65.10;;;;;;5013064;28;20033;-75
2023/03/14 12:34:09;;;;;;;9.07;3.67;;;20.50;64.90;;;;;;5030292;28;20021;-74
2023/03/14 12:36:48;;;;;;;9.82;3.70;;;20.60;65.00;;;;;;5031097;28;20021;-74
2023/03/14 12:39:32;;;;;;;9.50;4.05;;;20.50;64.90;;;;;;5031072;28;20116;-74
2023/03/14 12:42:26;;;;;;;11.18;4.20;;;20.50;64.90;;;;;;5013400;28;20048;-74
2023/03/14 12:45:15;;;;;;;9.82;3.60;;;20.50;64.90;;;;;;5031600;28;20061;-74
2023/03/14 12:47:55;;;;;;;8.90;3.95;;;20.50;64.80;;;;;;5030693;28;20473;-74
2023/03/14 12:50:28;;;;;;;9.75;4.30;;;20.60;64.90;;;;;;5031086;28;20032;-74
2023/03/14 12:53:16;;;;;;;8.98;4.15;;;20.50;64.80;;;;;;5030659;28;20044;-73
2023/03/14 12:55:49;;;;;;;11.50;3.65;;;20.50;64.80;;;;;;5014996;28;20032;-74
2023/03/14 12:58:40;;;;;;;12.23;3.53;;;20.50;64.80;;;;;;5030589;28;20041;-74
2023/03/14 13:01:16;;;;;;;13.60;4.10;;;20.50;64.80;;;;;;5015770;28;20042;-74
2023/03/14 13:03:47;;;;;;;8.98;3.90;;;20.50;64.90;;;;;;4997693;28;20033;-74